Time;durP1;ratioP1;P1;durP2;ratioP2;P2;SDS_P1;SDS_P2;PMS_P1;PMS_P2;Temp;Humidity;BMP_temperature;BMP_pressure;BME280_temperature;BME280_humidity;BME280_pressure;Samples;Min_cycle;Max_cycle;Signal;HPM_P1;HPM_P2
2022/03/20 00:01:12;;;;;;;59.23;22.97;;;-4.20;99.90;;;;;;5044882;28;20265;-60
2022/03/20 00:03:38;;;;;;;60.43;25.37;;;-4.20;99.90;;;;;;5034970;28;20179;-60
2022/03/20 00:06:03;;;;;;;55.27;23.50;;;-4.20;99.90;;;;;;5034093;28;20669;-60
2022/03/20 00:08:30;;;;;;;56.87;23.83;;;-4.20;99.90;;;;;;5035227;28;20205;-60
2022/03/20 00:10:59;;;;;;;57.70;24.53;;;-4.30;99.90;;;;;;5034827;28;20198;-61
2022/03/20 00:13:26;;;;;;;53.43;23.17;;;-4.30;99.90;;;;;;5034569;28;20583;-60
2022/03/20 00:15:53;;;;;;;48.93;23.27;;;-4.40;99.90;;;;;;5034681;28;20178;-60
2022/03/20 00:18:21;;;;;;;51.97;22.63;;;-4.40;99.90;;;;;;5043652;28;20197;-60
2022/03/20 00:20:49;;;;;;;56.10;23.07;;;-4.40;99.90;;;;;;5036342;28;20194;-60
2022/03/20 00:23:16;;;;;;;53.97;23.30;;;-4.30;99.90;;;;;;5054130;28;20637;-60
2022/03/20 00:25:44;;;;;;;55.90;24.80;;;-4.30;99.90;;;;;;5054419;28;20291;-60
2022/03/20 00:28:12;;;;;;;60.70;24.67;;;-4.30;99.90;;;;;;5054188;28;20537;-60
2022/03/20 00:30:38;;;;;;;56.00;24.70;;;-4.40;99.90;;;;;;5054224;28;20240;-61
2022/03/20 00:33:04;;;;;;;58.70;22.90;;;-4.50;99.90;;;;;;5053815;28;20599;-61
2022/03/20 00:35:31;;;;;;;62.53;24.93;;;-4.60;99.90;;;;;;5031371;28;20217;-60
2022/03/20 00:37:57;;;;;;;56.90;23.97;;;-4.70;99.90;;;;;;5016711;28;20996;-60
2022/03/20 00:40:22;;;;;;;57.60;23.10;;;-4.70;99.90;;;;;;5033708;28;20266;-61
2022/03/20 00:42:48;;;;;;;53.20;22.03;;;-4.70;99.90;;;;;;5033641;28;20279;-61
2022/03/20 00:45:14;;;;;;;51.53;22.83;;;-4.70;99.90;;;;;;5033602;28;20639;-60
2022/03/20 00:47:40;;;;;;;56.83;24.10;;;-4.70;99.90;;;;;;5033726;28;20213;-60
2022/03/20 00:50:07;;;;;;;53.40;20.93;;;-4.60;99.90;;;;;;5033508;28;20178;-60
2022/03/20 00:52:34;;;;;;;53.40;22.77;;;-4.60;99.90;;;;;;5033975;28;20186;-60
2022/03/20 00:54:59;;;;;;;53.97;23.17;;;-4.40;99.90;;;;;;5033616;28;20538;-60
2022/03/20 00:57:26;;;;;;;58.40;23.77;;;-4.40;99.90;;;;;;5033453;28;20194;-60
2022/03/20 00:59:51;;;;;;;55.83;22.90;;;-4.40;99.90;;;;;;5034158;28;20186;-61
2022/03/20 01:02:17;;;;;;;57.80;23.57;;;-4.50;99.90;;;;;;5033423;28;20179;-60
2022/03/20 01:04:43;;;;;;;52.30;23.67;;;-4.50;99.90;;;;;;5033666;28;20218;-60
2022/03/20 01:07:09;;;;;;;59.97;24.23;;;-4.50;99.90;;;;;;5031119;28;20329;-60
2022/03/20 01:09:35;;;;;;;62.20;24.50;;;-4.50;99.90;;;;;;5019374;28;20174;-61
2022/03/20 01:12:02;;;;;;;48.87;22.33;;;-4.50;99.90;;;;;;5053482;28;20342;-60
2022/03/20 01:14:28;;;;;;;52.77;21.37;;;-4.60;99.90;;;;;;5048709;28;20188;-60
2022/03/20 01:16:54;;;;;;;50.23;21.13;;;-4.50;99.90;;;;;;5010675;28;20180;-61
2022/03/20 01:19:24;;;;;;;49.53;21.60;;;-4.50;99.90;;;;;;5011187;28;20179;-60
2022/03/20 01:21:51;;;;;;;35.60;15.63;;;-4.60;99.90;;;;;;5011676;28;20228;-60
2022/03/20 01:24:17;;;;;;;31.77;15.37;;;-4.40;99.90;;;;;;5013086;28;20218;-60
2022/03/20 01:26:43;;;;;;;36.77;16.53;;;-4.10;99.90;;;;;;4995839;28;20189;-61
2022/03/20 01:29:08;;;;;;;38.97;17.03;;;-3.90;99.90;;;;;;5013271;28;20589;-60
2022/03/20 01:31:35;;;;;;;35.33;15.20;;;-3.80;99.90;;;;;;5012944;28;20180;-60
2022/03/20 01:34:02;;;;;;;34.50;15.77;;;-3.70;99.90;;;;;;5013388;28;20184;-60
2022/03/20 01:36:28;;;;;;;47.83;19.70;;;-3.60;99.90;;;;;;5025743;28;20183;-60
2022/03/20 01:38:54;;;;;;;33.10;16.47;;;-3.60;99.90;;;;;;5032900;28;20266;-61
2022/03/20 01:41:21;;;;;;;37.83;18.03;;;-3.70;99.90;;;;;;5032668;28;20594;-60
2022/03/20 01:43:59;;;;;;;32.97;15.60;;;-3.70;99.90;;;;;;5032638;28;20234;-60
2022/03/20 01:46:25;;;;;;;39.63;16.57;;;-3.70;99.90;;;;;;5032755;28;20263;-61
2022/03/20 01:48:51;;;;;;;33.07;16.87;;;-3.70;99.90;;;;;;5032782;28;20754;-60
2022/03/20 01:51:18;;;;;;;41.67;19.20;;;-3.60;99.90;;;;;;5032448;28;20259;-60
2022/03/20 01:53:44;;;;;;;32.93;14.77;;;-3.60;99.90;;;;;;5031642;28;20176;-60
2022/03/20 01:56:10;;;;;;;34.87;14.17;;;-3.50;99.90;;;;;;5032376;28;20185;-61
2022/03/20 01:58:36;;;;;;;36.53;15.83;;;-3.50;99.90;;;;;;5015001;28;20176;-61
2022/03/20 02:01:03;;;;;;;36.20;15.00;;;-3.50;99.90;;;;;;5014885;28;20206;-60
2022/03/20 02:03:29;;;;;;;46.65;18.40;;;-3.50;99.90;;;;;;5032458;28;20299;-60
2022/03/20 02:05:56;;;;;;;40.13;19.00;;;-3.60;99.90;;;;;;5032633;28;20187;-60
2022/03/20 02:08:26;;;;;;;46.60;17.80;;;-3.60;99.90;;;;;;5031966;28;20531;-60
2022/03/20 02:10:55;;;;;;;36.70;18.33;;;-3.60;99.90;;;;;;5032503;28;20633;-60
2022/03/20 02:13:24;;;;;;;39.60;17.23;;;-3.70;99.90;;;;;;5032287;28;20211;-60
2022/03/20 02:15:51;;;;;;;43.07;16.50;;;-3.70;99.90;;;;;;5032238;28;20656;-60
2022/03/20 02:18:18;;;;;;;32.33;15.90;;;-3.80;99.90;;;;;;5031805;28;20512;-60
2022/03/20 02:20:48;;;;;;;36.43;14.43;;;-3.80;99.90;;;;;;5032380;28;20229;-60
2022/03/20 02:23:15;;;;;;;34.37;13.23;;;-3.80;99.90;;;;;;5031889;28;20318;-61
2022/03/20 02:25:51;;;;;;;30.00;13.43;;;-3.80;99.90;;;;;;5032427;28;20212;-60
2022/03/20 02:28:17;;;;;;;30.10;12.40;;;-3.60;99.90;;;;;;5031988;28;20195;-60
2022/03/20 02:30:43;;;;;;;26.60;11.57;;;-3.40;99.90;;;;;;5032299;28;20266;-60
2022/03/20 02:33:09;;;;;;;26.57;12.13;;;-3.40;99.90;;;;;;5014341;28;20274;-61
2022/03/20 02:35:36;;;;;;;27.77;12.43;;;-3.40;99.90;;;;;;5026880;28;20181;-61
2022/03/20 02:38:02;;;;;;;25.90;12.47;;;-3.30;99.90;;;;;;5012385;28;20656;-61
2022/03/20 02:40:28;;;;;;;31.80;13.53;;;-3.40;99.90;;;;;;5012215;28;20272;-61
2022/03/20 02:42:54;;;;;;;29.57;13.37;;;-3.40;99.90;;;;;;5012202;28;20647;-61
2022/03/20 02:45:23;;;;;;;30.27;14.37;;;-3.50;99.90;;;;;;5012115;28;20235;-61
2022/03/20 02:47:51;;;;;;;35.83;12.80;;;-3.60;99.90;;;;;;5011721;28;20593;-60
2022/03/20 02:50:20;;;;;;;26.83;12.53;;;-3.60;99.90;;;;;;5010841;28;20200;-61
2022/03/20 02:52:54;;;;;;;30.93;12.03;;;-3.50;99.90;;;;;;5012497;28;20202;-60
2022/03/20 02:55:31;;;;;;;28.60;12.17;;;-3.50;99.90;;;;;;5011730;28;20598;-60
2022/03/20 02:57:59;;;;;;;26.63;11.87;;;-3.50;99.90;;;;;;5012070;28;20176;-60
2022/03/20 03:00:28;;;;;;;28.33;10.50;;;-3.40;99.90;;;;;;5011962;28;20186;-61
2022/03/20 03:02:56;;;;;;;27.10;11.23;;;-3.30;99.90;;;;;;5011843;28;20534;-60
2022/03/20 03:05:24;;;;;;;25.53;11.03;;;-3.20;99.90;;;;;;5014673;28;20222;-60
2022/03/20 03:10:56;;;;;;;25.17;10.93;;;-3.10;99.90;;;;;;5015994;28;20649;-60
2022/03/20 03:13:32;;;;;;;24.33;10.53;;;-3.00;99.90;;;;;;5015868;28;20255;-60
2022/03/20 03:16:03;;;;;;;23.93;10.60;;;-3.00;99.90;;;;;;5014571;28;20192;-61
2022/03/20 03:18:30;;;;;;;20.43;10.07;;;-3.00;99.90;;;;;;5015454;28;20676;-61
2022/03/20 03:20:55;;;;;;;23.47;10.90;;;-3.10;99.90;;;;;;5014763;28;20192;-61
2022/03/20 03:23:21;;;;;;;27.47;11.13;;;-3.10;99.90;;;;;;5014251;28;20281;-60
2022/03/20 03:25:48;;;;;;;20.57;10.53;;;-3.10;99.90;;;;;;5014421;28;20218;-60
2022/03/20 03:28:14;;;;;;;26.73;11.33;;;-3.00;99.90;;;;;;5015582;28;20182;-60
2022/03/20 03:30:43;;;;;;;23.87;10.43;;;-3.00;99.90;;;;;;5014577;28;20540;-60
2022/03/20 03:33:10;;;;;;;29.13;11.63;;;-3.00;99.90;;;;;;5015564;28;20193;-61
2022/03/20 03:35:43;;;;;;;25.97;11.43;;;-3.10;99.90;;;;;;5021345;28;20295;-61
2022/03/20 03:38:19;;;;;;;30.60;11.77;;;-3.10;99.90;;;;;;5035449;28;20169;-60
2022/03/20 03:40:47;;;;;;;23.53;11.17;;;-3.20;99.90;;;;;;5035270;28;20185;-60
2022/03/20 03:43:15;;;;;;;19.90;9.57;;;-3.20;99.90;;;;;;5035469;28;20641;-60
2022/03/20 03:45:41;;;;;;;21.97;9.77;;;-3.10;99.90;;;;;;5035331;28;20227;-61
2022/03/20 03:48:08;;;;;;;24.60;10.30;;;-3.20;99.90;;;;;;5034857;28;20232;-60
2022/03/20 03:50:36;;;;;;;24.60;11.70;;;-3.20;99.90;;;;;;5017345;28;20271;-61
2022/03/20 03:53:03;;;;;;;21.57;10.07;;;-3.30;99.90;;;;;;5035262;28;20176;-59
2022/03/20 03:55:30;;;;;;;19.33;9.60;;;-3.30;99.90;;;;;;5034646;28;20195;-61
2022/03/20 03:57:56;;;;;;;24.83;10.73;;;-3.30;99.90;;;;;;5034690;28;20601;-60
2022/03/20 04:00:22;;;;;;;21.27;10.17;;;-3.30;99.90;;;;;;5034731;28;20175;-60
2022/03/20 04:02:48;;;;;;;19.97;10.13;;;-3.20;99.90;;;;;;5034888;28;20588;-60
2022/03/20 04:05:15;;;;;;;30.07;11.17;;;-3.20;99.90;;;;;;5034518;28;20214;-60
2022/03/20 04:07:41;;;;;;;27.00;10.33;;;-3.30;99.90;;;;;;5034809;28;20180;-60
2022/03/20 04:10:08;;;;;;;21.80;10.20;;;-3.30;99.90;;;;;;5034809;28;20221;-60
2022/03/20 04:12:40;;;;;;;29.20;12.13;;;-3.40;99.90;;;;;;5034810;28;20212;-60
2022/03/20 04:15:07;;;;;;;22.77;10.40;;;-3.40;99.90;;;;;;5034426;28;20199;-60
2022/03/20 04:17:33;;;;;;;33.33;12.27;;;-3.40;99.90;;;;;;5033853;28;20179;-60
2022/03/20 04:20:00;;;;;;;29.10;11.70;;;-3.50;99.90;;;;;;5034363;28;20535;-60
2022/03/20 04:22:27;;;;;;;26.77;11.07;;;-3.60;99.90;;;;;;5033444;28;20618;-60
2022/03/20 04:24:53;;;;;;;27.80;12.73;;;-3.60;99.90;;;;;;5034194;28;20691;-60
2022/03/20 04:27:19;;;;;;;28.57;11.37;;;-3.70;99.90;;;;;;5034066;28;20191;-60
2022/03/20 04:29:46;;;;;;;24.10;10.30;;;-3.60;99.90;;;;;;5034142;28;20783;-60
2022/03/20 04:32:13;;;;;;;23.83;10.17;;;-3.70;99.90;;;;;;5034260;28;20180;-60
2022/03/20 04:34:42;;;;;;;18.97;8.80;;;-3.50;99.90;;;;;;5034404;28;20619;-61
2022/03/20 04:37:09;;;;;;;18.23;8.77;;;-3.40;99.90;;;;;;5015729;28;20180;-60
2022/03/20 04:39:37;;;;;;;20.20;9.30;;;-3.30;99.90;;;;;;5013820;28;20180;-61
2022/03/20 04:42:04;;;;;;;23.93;10.17;;;-3.20;99.90;;;;;;5012939;28;20287;-60
2022/03/20 04:44:30;;;;;;;20.33;9.07;;;-3.10;99.90;;;;;;5013830;28;20664;-61
2022/03/20 04:46:56;;;;;;;18.77;8.53;;;-2.90;99.90;;;;;;5014389;28;20575;-60
2022/03/20 05:00:10;;;;;;;21.30;9.60;;;-2.60;99.70;;;;;;5013735;28;20180;-61
2022/03/20 05:02:36;;;;;;;24.63;10.13;;;-2.50;99.50;;;;;;5013379;28;20259;-61
2022/03/20 05:05:03;;;;;;;25.10;9.80;;;-2.50;99.50;;;;;;5012260;28;20685;-61
2022/03/20 05:07:28;;;;;;;21.83;9.63;;;-2.40;99.30;;;;;;5013749;28;20194;-61
2022/03/20 05:15:22;;;;;;;22.83;9.30;;;-2.20;98.70;;;;;;5013487;28;20195;-60
2022/03/20 05:17:48;;;;;;;25.13;9.83;;;-2.10;98.80;;;;;;5013704;28;20181;-60
2022/03/20 05:20:14;;;;;;;24.27;9.77;;;-2.00;98.50;;;;;;5013457;28;20182;-61
2022/03/20 05:22:40;;;;;;;24.03;10.47;;;-2.00;98.70;;;;;;5012725;28;20186;-61
2022/03/20 05:25:09;;;;;;;21.90;9.70;;;-1.90;98.80;;;;;;5013084;28;20221;-61
2022/03/20 05:27:36;;;;;;;21.77;9.63;;;-1.80;98.10;;;;;;5012769;28;20597;-61
2022/03/20 05:30:05;;;;;;;22.07;10.47;;;-1.70;98.10;;;;;;5013146;28;20519;-61
2022/03/20 05:32:32;;;;;;;20.47;9.27;;;-1.70;97.90;;;;;;5012851;28;20266;-61
2022/03/20 05:34:59;;;;;;;21.97;10.53;;;-1.60;97.80;;;;;;5012915;28;20206;-61
2022/03/20 05:37:25;;;;;;;25.50;11.00;;;-1.60;97.40;;;;;;5032227;28;20218;-61
2022/03/20 05:39:51;;;;;;;17.27;8.33;;;-1.60;97.30;;;;;;5032981;28;20253;-61
2022/03/20 05:42:16;;;;;;;17.60;8.73;;;-1.50;97.40;;;;;;5032635;28;20186;-61
2022/03/20 05:44:46;;;;;;;22.87;9.50;;;-1.50;97.10;;;;;;5032647;28;20642;-61
2022/03/20 05:47:12;;;;;;;20.17;10.33;;;-1.50;97.20;;;;;;5032976;28;20181;-61
2022/03/20 05:49:38;;;;;;;22.23;10.63;;;-1.40;97.10;;;;;;5032045;28;20752;-60
2022/03/20 05:52:05;;;;;;;24.83;10.43;;;-1.30;97.30;;;;;;5032844;28;20285;-61
2022/03/20 05:54:30;;;;;;;20.50;9.47;;;-1.20;96.70;;;;;;5031967;28;20196;-61
2022/03/20 05:59:40;;;;;;;20.00;9.73;;;-1.20;96.60;;;;;;5032281;28;20173;-60
2022/03/20 06:02:08;;;;;;;23.40;10.23;;;-1.20;96.40;;;;;;5014500;28;20194;-61
2022/03/20 06:04:34;;;;;;;23.40;10.50;;;-1.20;96.40;;;;;;5014367;28;20229;-61
2022/03/20 06:07:00;;;;;;;22.20;9.63;;;-1.10;96.20;;;;;;5032553;28;20194;-61
2022/03/20 06:09:25;;;;;;;20.87;7.70;;;-1.20;96.20;;;;;;5031804;28;20182;-62
2022/03/20 06:11:51;;;;;;;18.00;8.10;;;-1.20;96.20;;;;;;5014624;28;20198;-61
2022/03/20 06:14:17;;;;;;;21.97;10.13;;;-1.10;96.20;;;;;;5032121;28;20663;-60
2022/03/20 06:16:48;;;;;;;22.23;10.47;;;-1.10;96.20;;;;;;5014467;28;20185;-61
2022/03/20 06:19:15;;;;;;;24.83;11.17;;;-1.10;96.40;;;;;;5032160;28;20173;-61
2022/03/20 06:21:44;;;;;;;20.73;10.00;;;-1.10;96.20;;;;;;5031442;28;20193;-61
2022/03/20 06:24:10;;;;;;;25.43;9.47;;;-1.00;96.30;;;;;;5032032;28;20579;-61
2022/03/20 06:26:37;;;;;;;19.53;8.93;;;-1.00;96.20;;;;;;5031982;28;20233;-61
2022/03/20 06:29:07;;;;;;;18.57;7.27;;;-0.90;95.80;;;;;;5031815;28;20181;-61
2022/03/20 06:31:34;;;;;;;18.47;9.30;;;-0.90;95.60;;;;;;5031563;28;20193;-61
2022/03/20 06:34:00;;;;;;;21.43;10.73;;;-0.90;95.50;;;;;;5031946;28;20181;-61
2022/03/20 06:36:27;;;;;;;23.63;10.07;;;-0.90;95.80;;;;;;5018959;28;20535;-62
2022/03/20 06:38:53;;;;;;;21.83;11.57;;;-0.90;95.90;;;;;;5011488;28;20636;-60
2022/03/20 06:41:19;;;;;;;22.97;10.33;;;-0.90;96.00;;;;;;5011505;28;20186;-60
2022/03/20 06:43:45;;;;;;;26.70;10.63;;;-0.90;96.10;;;;;;5011802;28;20184;-60
2022/03/20 06:46:11;;;;;;;25.77;10.13;;;-0.90;96.20;;;;;;5011910;28;20199;-61
2022/03/20 06:48:37;;;;;;;25.07;11.33;;;-0.80;96.20;;;;;;5011614;28;20235;-60
2022/03/20 06:51:04;;;;;;;24.17;11.63;;;-0.80;96.10;;;;;;5011948;28;20196;-62
2022/03/20 06:53:30;;;;;;;20.80;10.87;;;-0.70;96.10;;;;;;5011673;28;20176;-62
2022/03/20 06:55:57;;;;;;;24.87;10.70;;;-0.50;96.00;;;;;;5011991;28;20183;-61
2022/03/20 06:58:23;;;;;;;21.70;10.20;;;-0.20;95.80;;;;;;5012030;28;20267;-61
2022/03/20 07:00:50;;;;;;;31.30;11.90;;;0.00;95.70;;;;;;5011765;28;20266;-61
2022/03/20 07:03:16;;;;;;;28.37;13.70;;;0.10;95.60;;;;;;5010445;28;20179;-60
2022/03/20 07:05:42;;;;;;;34.67;13.33;;;0.20;95.40;;;;;;5011464;28;20206;-61
2022/03/20 07:08:08;;;;;;;26.83;12.07;;;0.40;95.70;;;;;;5010376;28;20214;-61
2022/03/20 07:10:35;;;;;;;28.80;12.27;;;0.60;95.00;;;;;;5010828;28;20241;-61
2022/03/20 07:15:48;;;;;;;29.47;12.33;;;0.90;94.80;;;;;;5011447;28;20242;-61
2022/03/20 07:18:18;;;;;;;21.57;10.03;;;1.00;94.80;;;;;;5011333;28;20210;-61
2022/03/20 07:20:45;;;;;;;26.43;12.40;;;1.20;94.40;;;;;;5014577;28;20522;-62
2022/03/20 07:23:12;;;;;;;30.97;12.10;;;1.30;94.50;;;;;;5019935;28;20225;-63
2022/03/20 07:31:09;;;;;;;28.90;12.63;;;1.70;93.80;;;;;;5019782;28;20190;-60
2022/03/20 07:33:34;;;;;;;26.03;11.70;;;1.80;93.70;;;;;;5017910;28;20188;-60
2022/03/20 07:36:01;;;;;;;23.00;11.73;;;1.80;93.70;;;;;;5019948;28;20183;-60
2022/03/20 07:38:27;;;;;;;25.97;11.33;;;1.90;93.60;;;;;;5001723;28;20258;-60
2022/03/20 07:40:54;;;;;;;30.17;12.17;;;2.00;93.70;;;;;;5002361;28;20204;-59
2022/03/20 07:43:20;;;;;;;21.47;10.57;;;2.00;93.60;;;;;;5020659;28;20264;-59
2022/03/20 07:45:46;;;;;;;25.87;10.77;;;2.20;93.30;;;;;;5001679;28;20231;-65
2022/03/20 07:48:13;;;;;;;22.33;11.43;;;2.20;93.20;;;;;;5019982;28;20282;-65
2022/03/20 07:50:40;;;;;;;26.40;11.10;;;2.30;93.00;;;;;;5021527;28;20181;-60
2022/03/20 07:53:06;;;;;;;27.50;10.53;;;2.40;92.60;;;;;;5023540;28;20322;-59
2022/03/20 07:55:34;;;;;;;24.27;11.30;;;2.60;92.30;;;;;;5023696;28;20193;-61
2022/03/20 07:58:00;;;;;;;23.37;10.33;;;2.70;91.70;;;;;;5023965;28;20248;-58
2022/03/20 08:00:26;;;;;;;26.43;10.40;;;2.90;91.20;;;;;;5022809;28;20637;-63
2022/03/20 08:02:52;;;;;;;20.57;8.70;;;3.10;90.80;;;;;;5005454;28;20232;-60
2022/03/20 08:05:18;;;;;;;19.67;10.13;;;3.50;89.70;;;;;;4989446;28;20245;-61
2022/03/20 08:07:44;;;;;;;16.10;7.97;;;3.60;87.80;;;;;;5023357;28;20193;-60
2022/03/20 08:10:12;;;;;;;23.43;9.73;;;3.80;83.80;;;;;;5022738;28;20221;-60
2022/03/20 08:12:39;;;;;;;18.07;9.00;;;4.00;83.90;;;;;;5022481;28;20191;-61
2022/03/20 08:15:06;;;;;;;19.67;9.33;;;4.10;83.10;;;;;;5023223;28;20207;-57
2022/03/20 08:17:41;;;;;;;19.13;9.47;;;4.20;81.20;;;;;;5022630;28;20249;-57
2022/03/20 08:20:07;;;;;;;19.30;8.10;;;4.40;80.70;;;;;;5022089;28;20194;-59
2022/03/20 08:22:33;;;;;;;21.57;7.93;;;4.50;74.10;;;;;;5021054;28;20664;-67
2022/03/20 08:24:58;;;;;;;16.03;7.50;;;4.60;72.60;;;;;;5004768;28;20251;-59
2022/03/20 08:27:24;;;;;;;14.60;7.20;;;4.60;71.70;;;;;;5023153;28;20187;-59
2022/03/20 08:29:50;;;;;;;15.47;7.10;;;4.80;69.50;;;;;;5021039;28;20215;-62
2022/03/20 08:32:16;;;;;;;14.40;6.97;;;4.70;65.70;;;;;;5022516;28;20229;-60
2022/03/20 08:34:42;;;;;;;21.30;8.60;;;4.90;65.30;;;;;;5022996;28;20705;-60
2022/03/20 08:37:07;;;;;;;21.63;7.40;;;5.10;63.90;;;;;;5021432;28;20191;-59
2022/03/20 08:39:33;;;;;;;16.67;8.20;;;5.20;61.90;;;;;;5021623;28;20183;-59
2022/03/20 08:41:59;;;;;;;15.83;7.07;;;5.30;61.70;;;;;;5022683;28;20194;-60
2022/03/20 08:44:26;;;;;;;15.50;7.40;;;5.30;59.80;;;;;;5021850;28;20217;-62
2022/03/20 08:46:54;;;;;;;20.97;8.20;;;5.40;60.20;;;;;;5022342;28;20221;-61
2022/03/20 08:49:20;;;;;;;19.47;8.83;;;5.50;60.00;;;;;;4999925;28;20251;-63
2022/03/20 08:51:46;;;;;;;21.77;8.87;;;5.80;60.00;;;;;;5021958;28;20192;-61
2022/03/20 08:54:12;;;;;;;18.83;9.27;;;5.90;58.90;;;;;;5022726;28;20300;-61
2022/03/20 08:56:38;;;;;;;15.57;8.50;;;5.90;58.60;;;;;;5022003;28;20197;-59
2022/03/20 08:59:06;;;;;;;20.33;9.50;;;6.00;57.70;;;;;;5022383;28;20193;-60
2022/03/20 09:01:32;;;;;;;16.60;7.70;;;6.10;57.50;;;;;;5022306;28;20183;-60
2022/03/20 09:03:58;;;;;;;21.50;8.87;;;6.30;57.60;;;;;;5021180;28;20195;-61
2022/03/20 09:06:23;;;;;;;24.43;10.30;;;6.50;57.60;;;;;;5022254;28;20676;-64
2022/03/20 09:08:50;;;;;;;19.37;10.00;;;6.40;57.10;;;;;;5022947;28;20189;-59
2022/03/20 09:11:18;;;;;;;20.93;9.83;;;6.50;56.50;;;;;;5022285;28;20207;-61
2022/03/20 09:13:45;;;;;;;20.63;9.40;;;6.30;56.30;;;;;;5023162;28;20193;-60
2022/03/20 09:19:07;;;;;;;22.73;10.67;;;6.10;57.80;;;;;;5020861;28;20192;-60
2022/03/20 09:21:36;;;;;;;23.97;10.50;;;6.20;57.10;;;;;;5021968;28;20299;-62
2022/03/20 09:24:03;;;;;;;23.80;10.63;;;6.10;56.80;;;;;;5021902;28;20606;-62
2022/03/20 09:26:29;;;;;;;23.30;11.07;;;6.00;56.60;;;;;;5021860;28;20188;-60
2022/03/20 09:28:55;;;;;;;20.93;10.30;;;6.10;55.80;;;;;;5022338;28;20192;-61
2022/03/20 09:31:22;;;;;;;29.43;10.20;;;6.00;55.00;;;;;;5021506;28;20641;-63
2022/03/20 09:33:49;;;;;;;23.20;11.30;;;5.90;55.30;;;;;;5021100;28;20233;-61
2022/03/20 09:36:15;;;;;;;20.63;10.00;;;5.90;52.80;;;;;;5020939;28;20188;-63
2022/03/20 09:38:41;;;;;;;19.43;10.60;;;5.80;52.60;;;;;;5005888;28;20193;-59
2022/03/20 09:41:08;;;;;;;21.33;9.60;;;5.80;52.50;;;;;;5021617;28;20225;-62
2022/03/20 09:43:39;;;;;;;22.60;10.17;;;5.90;52.60;;;;;;5020794;28;20189;-61
2022/03/20 09:46:05;;;;;;;20.03;10.63;;;5.90;52.60;;;;;;5018334;28;20223;-60
2022/03/20 09:48:32;;;;;;;28.87;11.00;;;5.90;51.90;;;;;;5020194;28;20239;-62
2022/03/20 09:51:00;;;;;;;22.57;10.90;;;6.00;51.60;;;;;;5021073;28;20504;-61
2022/03/20 09:53:27;;;;;;;21.07;10.57;;;6.10;51.80;;;;;;5002608;28;20219;-62
2022/03/20 09:55:57;;;;;;;25.63;12.90;;;6.00;51.30;;;;;;5020883;28;20188;-63
2022/03/20 09:58:27;;;;;;;21.77;10.73;;;6.00;50.70;;;;;;5020901;28;20267;-62
2022/03/20 10:00:54;;;;;;;23.07;10.37;;;5.90;50.60;;;;;;5021415;28;20194;-59
2022/03/20 10:03:21;;;;;;;22.63;12.23;;;5.90;51.30;;;;;;5020272;28;20199;-63
2022/03/20 10:06:16;;;;;;;24.67;12.23;;;6.00;51.50;;;;;;5020058;28;20279;-61
2022/03/20 10:09:12;;;;;;;24.97;12.80;;;6.10;50.60;;;;;;5019138;28;20721;-61
2022/03/20 10:11:47;;;;;;;29.63;15.43;;;6.00;50.90;;;;;;4983756;28;20212;-56
2022/03/20 10:14:22;;;;;;;24.03;12.57;;;6.00;50.60;;;;;;5019708;28;20193;-65
2022/03/20 10:17:07;;;;;;;27.40;13.80;;;6.20;50.80;;;;;;5019351;28;20188;-60
2022/03/20 10:19:34;;;;;;;30.03;14.70;;;6.20;50.00;;;;;;5019471;28;20731;-65
2022/03/20 10:22:06;;;;;;;22.87;12.93;;;6.30;50.10;;;;;;5002542;28;20519;-63
2022/03/20 10:24:36;;;;;;;28.47;13.27;;;6.40;49.60;;;;;;5016534;28;20263;-63
2022/03/20 10:27:04;;;;;;;22.93;12.80;;;6.50;49.50;;;;;;5019387;28;20194;-64
2022/03/20 10:29:34;;;;;;;23.83;12.33;;;6.50;49.30;;;;;;5001454;28;20200;-65
2022/03/20 10:32:05;;;;;;;41.10;13.13;;;6.50;48.70;;;;;;5002136;28;20187;-64
2022/03/20 10:34:58;;;;;;;22.20;11.50;;;6.40;48.80;;;;;;5018838;28;20247;-64
2022/03/20 10:37:51;;;;;;;25.13;12.47;;;6.30;49.00;;;;;;5019468;28;20271;-62
2022/03/20 10:40:27;;;;;;;20.07;11.60;;;6.50;49.70;;;;;;5019866;28;20199;-61
2022/03/20 10:43:14;;;;;;;24.83;12.77;;;6.80;49.60;;;;;;5019524;28;20610;-60
2022/03/20 10:45:55;;;;;;;24.40;11.83;;;6.90;48.80;;;;;;5017622;28;20237;-59
2022/03/20 10:48:43;;;;;;;22.70;11.63;;;7.10;48.80;;;;;;4998533;28;20238;-62
2022/03/20 10:51:10;;;;;;;23.17;11.00;;;7.20;48.80;;;;;;5001447;28;20353;-60
2022/03/20 10:53:55;;;;;;;18.73;9.30;;;7.20;48.80;;;;;;4999500;28;20183;-65
2022/03/20 10:56:22;;;;;;;20.67;9.80;;;7.20;48.20;;;;;;4999665;28;20175;-66
2022/03/20 10:58:48;;;;;;;18.97;10.00;;;7.30;48.20;;;;;;4999912;28;20189;-65
2022/03/20 11:01:14;;;;;;;19.73;10.77;;;7.40;48.70;;;;;;4999994;28;20191;-61
2022/03/20 11:03:40;;;;;;;23.60;12.03;;;7.50;48.20;;;;;;4999830;28;20192;-62
2022/03/20 11:06:08;;;;;;;21.03;11.37;;;7.40;47.60;;;;;;4997977;28;20223;-64
2022/03/20 11:08:34;;;;;;;21.90;11.53;;;7.20;47.40;;;;;;4999515;28;20188;-63
2022/03/20 11:11:01;;;;;;;21.37;11.80;;;7.40;48.00;;;;;;4999753;28;20250;-63
2022/03/20 11:13:28;;;;;;;27.73;12.60;;;7.60;47.50;;;;;;4998703;28;20230;-63
2022/03/20 11:15:57;;;;;;;23.00;12.17;;;7.80;47.50;;;;;;5000847;28;20198;-63
2022/03/20 11:18:26;;;;;;;20.40;10.77;;;7.80;46.40;;;;;;5000577;28;20193;-63
2022/03/20 11:20:54;;;;;;;22.30;11.50;;;8.00;47.20;;;;;;4999966;28;20218;-63
2022/03/20 11:23:24;;;;;;;20.87;10.80;;;8.10;46.90;;;;;;4999186;28;20195;-64
2022/03/20 11:25:52;;;;;;;17.87;9.73;;;8.30;47.20;;;;;;5000823;28;20208;-63
2022/03/20 11:28:20;;;;;;;18.40;11.07;;;8.30;46.00;;;;;;5001740;28;20196;-63
2022/03/20 11:30:47;;;;;;;17.23;10.93;;;8.00;45.50;;;;;;5002191;28;20192;-63
2022/03/20 11:33:14;;;;;;;20.77;10.10;;;8.10;46.30;;;;;;5002639;28;20195;-62
2022/03/20 11:35:40;;;;;;;18.07;9.97;;;8.10;46.30;;;;;;5002872;28;20300;-62
2022/03/20 11:38:25;;;;;;;19.70;10.00;;;8.50;46.00;;;;;;5004360;28;20208;-62
2022/03/20 11:41:17;;;;;;;20.00;9.67;;;8.70;45.60;;;;;;5004096;28;20191;-64
2022/03/20 11:44:14;;;;;;;19.20;10.17;;;9.00;45.30;;;;;;5001035;28;20196;-64
2022/03/20 11:46:43;;;;;;;18.83;9.63;;;9.40;44.90;;;;;;5004512;28;20257;-63
2022/03/20 11:49:19;;;;;;;20.50;9.77;;;9.90;44.40;;;;;;5018901;28;20292;-63
2022/03/20 11:52:13;;;;;;;20.07;11.00;;;10.00;43.00;;;;;;5022531;28;20212;-62
2022/03/20 11:54:41;;;;;;;19.77;10.90;;;10.00;43.10;;;;;;5022978;28;20182;-63
2022/03/20 11:57:26;;;;;;;24.13;11.83;;;11.00;42.20;;;;;;5022982;28;20555;-60
2022/03/20 11:59:57;;;;;;;26.70;13.23;;;11.60;40.80;;;;;;5020994;28;20523;-61
2022/03/20 12:02:35;;;;;;;20.70;12.33;;;11.70;40.40;;;;;;5022943;28;20273;-63
2022/03/20 12:05:22;;;;;;;24.73;13.10;;;12.80;40.40;;;;;;5024148;28;20220;-63
2022/03/20 12:08:23;;;;;;;25.47;12.37;;;12.80;38.40;;;;;;5023469;28;20204;-64
2022/03/20 12:11:13;;;;;;;21.73;12.30;;;12.60;38.90;;;;;;5020446;28;20192;-67
2022/03/20 12:14:03;;;;;;;31.30;13.73;;;12.50;39.00;;;;;;5021580;28;20193;-61
2022/03/20 12:16:44;;;;;;;24.63;13.23;;;12.30;39.60;;;;;;5022272;28;20183;-61
2022/03/20 12:19:18;;;;;;;26.93;13.77;;;13.20;38.90;;;;;;5021520;28;20194;-60
2022/03/20 12:22:02;;;;;;;30.57;14.63;;;13.90;37.30;;;;;;5022975;28;20249;-76
2022/03/20 12:24:37;;;;;;;22.37;13.33;;;15.00;36.30;;;;;;5021791;28;20247;-63
2022/03/20 12:27:25;;;;;;;24.63;13.43;;;14.90;35.60;;;;;;5022449;28;20237;-59
2022/03/20 12:29:55;;;;;;;30.60;14.00;;;14.50;34.90;;;;;;5021621;28;20244;-63
2022/03/20 12:32:25;;;;;;;24.93;13.30;;;14.60;35.10;;;;;;5022546;28;20190;-68
2022/03/20 12:35:02;;;;;;;24.40;13.83;;;15.10;34.50;;;;;;5004268;28;20230;-68
2022/03/20 12:37:28;;;;;;;21.40;12.87;;;16.30;33.40;;;;;;5020194;28;20188;-67
2022/03/20 12:40:03;;;;;;;22.93;12.83;;;17.10;32.80;;;;;;5020313;28;20186;-67
2022/03/20 12:42:35;;;;;;;28.33;13.90;;;18.20;31.10;;;;;;5020829;28;20631;-65
2022/03/20 12:45:03;;;;;;;19.07;10.87;;;17.80;30.60;;;;;;5020703;28;20679;-67
2022/03/20 12:47:29;;;;;;;20.57;11.47;;;17.60;29.50;;;;;;5019821;28;20644;-68
2022/03/20 12:49:59;;;;;;;19.17;10.07;;;16.60;29.40;;;;;;5019113;28;20188;-68
2022/03/20 12:52:25;;;;;;;20.80;11.13;;;17.90;30.40;;;;;;5002880;28;20206;-65
2022/03/20 12:54:57;;;;;;;19.67;11.63;;;17.90;30.10;;;;;;5021349;28;21179;-67
2022/03/20 12:57:41;;;;;;;27.63;12.83;;;17.60;29.60;;;;;;5018803;28;20183;-65
2022/03/20 13:00:32;;;;;;;24.33;11.80;;;15.20;30.00;;;;;;5019629;28;20788;-67
2022/03/20 13:03:12;;;;;;;18.93;10.43;;;14.20;32.30;;;;;;5008591;28;20632;-66
2022/03/20 13:05:57;;;;;;;20.00;10.60;;;13.30;33.70;;;;;;5020004;28;20211;-66
2022/03/20 13:08:28;;;;;;;20.73;11.07;;;12.70;34.20;;;;;;5020781;28;20187;-66
2022/03/20 13:10:56;;;;;;;23.07;10.13;;;12.70;35.00;;;;;;5021280;28;20183;-67
2022/03/20 13:13:28;;;;;;;24.70;11.30;;;12.40;35.40;;;;;;5022014;28;20208;-66
2022/03/20 13:15:54;;;;;;;16.10;9.30;;;12.40;35.90;;;;;;5021214;28;20189;-67